Kezdőlap
METAR-TAF:

METAR-TAF

Repülőterek :

Lebanon, New Hampshire, Amerikai Egyesült Államok

földrajzi szélesség: 43-37-38N, földrajzi hosszúság: 072-18-21W, magasság: 182 m

Jelenlegi meteorológiai megfigyelések

A jelentés 20 perccel ezelõtt készült, 19:53 UTC
Nyugati szél 8 kt
Hőmérséklet 4°C
Páratartalom 44%
Légköri nyomás 1018 hPa
Látótávolság: 16.1 km
Derült ég

METAR: KLEB 221953Z 26008KT 10SM CLR 04/M07 A3005 RMK AO2 SLP188 T00441072

Idő: 15:13 (20:13 UTC)

Előrejelzés

A jelentés 2 órával és 53 perccel ezelõtt készült, 17:20 UTC
Az előrejelzés 22-én 18 óra UTC és 23-én 18 óra UTC között érvényes
Nyugat-délnyugati szél 8 kt
Látótávolság: 10 km
Szórványos felhőzet 20000 lábon

TAF: KLEB 221720Z 2218/2318 25008KT P6SM SCT200

Meteorológiai megfigyelések és előrejelzések több, mint 4000 repülőtéren (METAR és TAF jelentéseket).

A térképen piros és sárga pontok jelzik az elérhető meteorológiai állomásokat.

Mozgassa az egeret a pont fölött, hogy megjelenjen az állomás neve.

Azután kattintson az időjárási megfigyelések és előrejelzések megtekintéséhez.

A térkép megváltoztatása: kattintson a fekete keresztel jelölt zöld gombra ráközelítéshez, a vonallal jelölt zöld gombra távolításhoz, vagy a zöld nyilakra a szomszédos térképek eléréséhez.


METAR-TAF: